createdAt,value
2022-12-15T00:00:55.958Z,103603.78
2022-12-15T00:03:43.046Z,103462.56
2022-12-15T00:06:30.499Z,103565.25
2022-12-15T00:09:20.578Z,103549.16
2022-12-15T00:12:07.762Z,103598.38
2022-12-15T00:14:55.146Z,103579.31
2022-12-15T00:17:43.565Z,103612.66
2022-12-15T00:20:31.152Z,103556.63
2022-12-15T00:23:25.506Z,103533.53
2022-12-15T00:26:13.123Z,103570.03
2022-12-15T00:29:00.483Z,103556.41
2022-12-15T00:31:47.598Z,103609.94
2022-12-15T00:34:37.384Z,103572.06
2022-12-15T00:37:25.134Z,103597.69
2022-12-15T00:39:59.386Z,103592.72
2022-12-15T00:42:29.466Z,103573.63
2022-12-15T00:44:58.407Z,103593.59
2022-12-15T00:47:27.275Z,103565.50
2022-12-15T00:50:18.013Z,103587.94
2022-12-15T00:53:05.060Z,103563.00
2022-12-15T00:55:52.928Z,103617.41
2022-12-15T00:58:39.825Z,103575.03
2022-12-15T01:01:29.069Z,103619.88
2022-12-15T01:04:16.438Z,103565.25
2022-12-15T01:07:03.886Z,103562.97
2022-12-15T01:09:51.276Z,103597.69
2022-12-15T01:12:38.289Z,103610.16
2022-12-15T01:15:25.681Z,103562.97
2022-12-15T01:18:13.514Z,103560.72
2022-12-15T01:20:44.711Z,103568.22
2022-12-15T01:23:13.644Z,103550.75
2022-12-15T01:25:43.284Z,103567.06
2022-12-15T01:28:11.892Z,103551.66
2022-12-15T01:30:40.834Z,103576.59
2022-12-15T01:33:09.896Z,103533.50
2022-12-15T01:35:39.503Z,103578.66
2022-12-15T01:38:09.613Z,103554.38
2022-12-15T01:40:47.962Z,103600.16
2022-12-15T01:43:25.389Z,103440.41
2022-12-15T01:45:59.199Z,103590.66
2022-12-15T01:48:45.525Z,103585.88
2022-12-15T01:51:28.221Z,103604.28
2022-12-15T01:54:02.164Z,103553.25
2022-12-15T01:56:37.732Z,103441.50
2022-12-15T01:59:10.537Z,103559.34
2022-12-15T02:01:39.319Z,103583.16
2022-12-15T02:04:12.326Z,103553.47
2022-12-15T02:06:41.046Z,103551.66
2022-12-15T02:09:13.462Z,103602.22
2022-12-15T02:12:00.506Z,103597.91
2022-12-15T02:14:59.417Z,103597.91
2022-12-15T02:17:42.857Z,103591.78
2022-12-15T02:20:33.619Z,103604.25
2022-12-15T02:23:05.017Z,103612.88
2022-12-15T02:26:03.537Z,103613.56
2022-12-15T02:28:44.348Z,103620.59
2022-12-15T02:31:40.175Z,103622.66
2022-12-15T02:34:32.286Z,103606.28
2022-12-15T02:37:12.336Z,103593.16
2022-12-15T02:39:40.985Z,103613.78
2022-12-15T02:42:12.073Z,103608.34
2022-12-15T02:44:50.293Z,103602.19
2022-12-15T02:47:43.059Z,103612.88
2022-12-15T02:50:14.605Z,103614.69
2022-12-15T02:52:51.568Z,103558.91
2022-12-15T02:55:27.229Z,103580.69
2022-12-15T02:58:03.740Z,103586.81
2022-12-15T03:00:38.945Z,103565.94
2022-12-15T03:03:08.513Z,103565.72
2022-12-15T03:05:37.557Z,103601.78
2022-12-15T03:08:06.163Z,103600.88
2022-12-15T03:10:35.112Z,103536.44
2022-12-15T03:13:03.805Z,103609.72
2022-12-15T03:15:35.594Z,103552.53
2022-12-15T03:18:04.969Z,103579.28
2022-12-15T03:20:34.001Z,103560.94
2022-12-15T03:23:02.859Z,103546.41
2022-12-15T03:25:31.980Z,103577.72
2022-12-15T03:28:01.589Z,103536.25
2022-12-15T03:30:32.810Z,103587.91
2022-12-15T03:33:01.820Z,103557.56
2022-12-15T03:35:31.879Z,103611.97
2022-12-15T03:38:00.718Z,103546.41
2022-12-15T03:40:29.542Z,103618.50
2022-12-15T03:42:59.541Z,103612.16
2022-12-15T03:45:32.970Z,103581.56
2022-12-15T03:48:01.927Z,103597.44
2022-12-15T03:50:31.360Z,103388.88
2022-12-15T03:53:04.377Z,103567.50
2022-12-15T03:55:34.169Z,103578.13
2022-12-15T03:58:03.677Z,103632.59
2022-12-15T04:00:32.421Z,103594.97
2022-12-15T04:03:01.297Z,103622.41
2022-12-15T04:05:35.033Z,103572.06
2022-12-15T04:08:04.087Z,103567.75
2022-12-15T04:10:35.323Z,103464.81
2022-12-15T04:13:09.838Z,103603.78
2022-12-15T04:15:40.275Z,103601.56
2022-12-15T04:18:11.496Z,103550.72
2022-12-15T04:20:41.173Z,103622.44
2022-12-15T04:23:10.319Z,103565.72
2022-12-15T04:25:57.504Z,103539.66
2022-12-15T04:28:44.806Z,103598.81
2022-12-15T04:31:36.140Z,103549.59
2022-12-15T04:34:30.484Z,103572.97
2022-12-15T04:37:18.193Z,103611.91
2022-12-15T04:40:08.095Z,103569.06
2022-12-15T04:42:59.814Z,103567.91
2022-12-15T04:45:47.685Z,103595.59
2022-12-15T04:48:35.734Z,103580.59
2022-12-15T04:51:23.956Z,103575.84
2022-12-15T04:54:11.572Z,103513.53
2022-12-15T04:56:58.597Z,103610.94
2022-12-15T04:59:45.595Z,103575.56
2022-12-15T05:02:32.699Z,103607.31
2022-12-15T05:05:20.017Z,103571.47
2022-12-15T05:08:07.037Z,103566.50
2022-12-15T05:10:53.838Z,103565.53
2022-12-15T05:13:40.698Z,103600.63
2022-12-15T05:16:27.531Z,103589.03
2022-12-15T05:19:14.524Z,103614.44
2022-12-15T05:22:01.430Z,103472.09
2022-12-15T05:24:48.579Z,103577.66
2022-12-15T05:27:35.314Z,103457.13
2022-12-15T05:30:22.242Z,103567.34
2022-12-15T05:32:51.062Z,103568.03
2022-12-15T05:35:19.961Z,103525.66
2022-12-15T05:37:48.469Z,103589.72
2022-12-15T05:40:17.348Z,103599.63
2022-12-15T05:42:50.286Z,103576.41
2022-12-15T05:45:18.939Z,103560.97
2022-12-15T05:47:54.992Z,103591.72
2022-12-15T05:50:24.366Z,103630.28
2022-12-15T05:52:52.975Z,103570.81
2022-12-15T05:55:21.680Z,103581.16
2022-12-15T05:57:55.050Z,103616.03
2022-12-15T06:00:23.898Z,103573.97
2022-12-15T06:02:52.530Z,103565.34
2022-12-15T06:05:21.368Z,103468.16
2022-12-15T06:07:49.889Z,103565.69
2022-12-15T06:10:18.676Z,103550.78
2022-12-15T06:12:47.802Z,103603.06
2022-12-15T06:15:17.002Z,103589.00
2022-12-15T06:17:45.746Z,103598.53
2022-12-15T06:20:21.342Z,103450.25
2022-12-15T06:22:50.336Z,103530.75
2022-12-15T06:25:18.943Z,103570.72
2022-12-15T06:27:47.707Z,103590.97
2022-12-15T06:30:16.814Z,103607.25
2022-12-15T06:32:45.336Z,103579.94
2022-12-15T06:35:18.623Z,103566.28
2022-12-15T06:37:47.355Z,103437.75
2022-12-15T06:40:16.263Z,103584.16
2022-12-15T06:42:45.084Z,103535.56
2022-12-15T06:45:13.848Z,103534.59
2022-12-15T06:47:42.563Z,103352.31
2022-12-15T06:50:11.227Z,103525.06
2022-12-15T06:52:40.125Z,103559.25
2022-12-15T06:55:09.087Z,103569.81
2022-12-15T06:57:38.114Z,103516.28
2022-12-15T07:00:07.786Z,103548.56
2022-12-15T07:02:36.724Z,103516.59
2022-12-15T07:05:06.445Z,103551.09
2022-12-15T07:07:35.227Z,103556.09
2022-12-15T07:10:04.235Z,103542.63
2022-12-15T07:12:33.018Z,103504.78
2022-12-15T07:15:01.736Z,103401.09
2022-12-15T07:17:30.799Z,103515.03
2022-12-15T07:19:59.487Z,103497.97
2022-12-15T07:22:29.734Z,103522.75
2022-12-15T07:24:58.961Z,103529.72
2022-12-15T07:27:27.725Z,103512.84
2022-12-15T07:29:56.341Z,103526.19
2022-12-15T07:32:25.501Z,103492.16
2022-12-15T07:34:54.447Z,103487.41
2022-12-15T07:37:23.199Z,103480.97
2022-12-15T07:39:51.962Z,103471.94
2022-12-15T07:42:20.603Z,103521.09
2022-12-15T07:44:50.021Z,103495.84
2022-12-15T07:47:19.045Z,103524.03
2022-12-15T07:49:47.904Z,103488.00
2022-12-15T07:52:17.024Z,103501.81
2022-12-15T07:54:46.261Z,103501.09
2022-12-15T07:57:14.980Z,103478.53
2022-12-15T07:59:44.175Z,103512.72
2022-12-15T08:02:14.176Z,103521.16
2022-12-15T08:04:43.145Z,103472.81
2022-12-15T08:07:12.626Z,103457.34
2022-12-15T08:09:41.293Z,103489.50
2022-12-15T08:12:10.019Z,103373.38
2022-12-15T08:14:38.767Z,103516.41
2022-12-15T08:17:07.746Z,103495.94
2022-12-15T08:19:36.340Z,103493.97
2022-12-15T08:22:05.142Z,103480.94
2022-12-15T08:24:33.807Z,103490.91
2022-12-15T08:27:02.738Z,103487.22
2022-12-15T08:32:20.307Z,103457.78
2022-12-15T08:34:50.480Z,103437.00
2022-12-15T08:37:19.320Z,103499.75
2022-12-15T08:39:48.828Z,103456.22
2022-12-15T08:42:17.589Z,103487.34
2022-12-15T08:44:50.507Z,103372.63
2022-12-15T08:47:19.251Z,103508.75
2022-12-15T08:49:49.225Z,103467.09
2022-12-15T08:52:18.098Z,103456.63
2022-12-15T08:54:47.044Z,103485.84
2022-12-15T08:57:17.730Z,103482.03
2022-12-15T08:59:46.531Z,103423.00
2022-12-15T09:02:15.380Z,103489.53
2022-12-15T09:04:46.050Z,103501.19
2022-12-15T09:07:14.853Z,103498.69
2022-12-15T09:09:43.991Z,103445.38
2022-12-15T09:12:13.465Z,103359.13
2022-12-15T09:14:42.183Z,103451.72
2022-12-15T09:17:10.902Z,103499.13
2022-12-15T09:19:39.700Z,103420.09
2022-12-15T09:22:08.840Z,103448.06
2022-12-15T09:24:37.532Z,103478.41
2022-12-15T09:27:06.323Z,103384.09
2022-12-15T09:29:35.831Z,103495.47
2022-12-15T09:32:10.479Z,103480.72
2022-12-15T09:34:43.642Z,103520.50
2022-12-15T09:37:12.581Z,103473.69
2022-12-15T09:39:44.549Z,103433.72
2022-12-15T09:42:30.794Z,103514.16
2022-12-15T09:45:22.320Z,103527.44
2022-12-15T09:48:00.514Z,103517.47
2022-12-15T09:50:50.414Z,103512.88
2022-12-15T09:53:52.996Z,103491.91
2022-12-15T09:56:20.075Z,103520.28
2022-12-15T09:58:56.929Z,103519.97
2022-12-15T10:01:36.941Z,103491.34
2022-12-15T10:04:22.365Z,103534.25
2022-12-15T10:07:35.611Z,103520.50
2022-12-15T10:10:22.629Z,103521.91
2022-12-15T10:15:57.305Z,103487.09
2022-12-15T10:19:01.076Z,103509.50
2022-12-15T10:21:31.993Z,103522.13
2022-12-15T10:24:15.458Z,103481.59
2022-12-15T10:26:49.347Z,103474.84
2022-12-15T10:29:29.559Z,103368.84
2022-12-15T10:32:17.663Z,103516.75
2022-12-15T10:34:47.161Z,103512.31
2022-12-15T10:37:22.079Z,103502.25
2022-12-15T10:39:51.571Z,103500.44
2022-12-15T10:42:26.005Z,103481.09
2022-12-15T10:44:57.123Z,103494.94
2022-12-15T10:47:35.107Z,103470.34
2022-12-15T10:50:33.572Z,103467.41
2022-12-15T10:53:09.723Z,103443.31
2022-12-15T10:55:40.437Z,103479.25
2022-12-15T10:58:52.816Z,103478.16
2022-12-15T11:01:26.315Z,103426.47
2022-12-15T11:03:57.272Z,103460.59
2022-12-15T11:06:32.406Z,103431.47
2022-12-15T11:09:30.266Z,103467.53
2022-12-15T11:12:17.636Z,103320.84
2022-12-15T11:14:49.491Z,103318.13
2022-12-15T11:17:23.334Z,103450.66
2022-12-15T11:20:04.964Z,103399.53
2022-12-15T11:22:45.178Z,103445.75
2022-12-15T11:25:38.222Z,103388.50
2022-12-15T11:28:18.096Z,103396.72
2022-12-15T11:31:07.922Z,103400.03
2022-12-15T11:33:36.853Z,103422.81
2022-12-15T11:36:22.105Z,103436.19
2022-12-15T11:39:07.522Z,103399.97
2022-12-15T11:42:00.806Z,103422.94
2022-12-15T11:44:53.270Z,103385.59
2022-12-15T11:47:36.095Z,103416.72
2022-12-15T11:50:51.090Z,103425.97
2022-12-15T11:53:33.076Z,103391.81
2022-12-15T11:56:38.467Z,103412.13
2022-12-15T11:59:49.402Z,103358.75
2022-12-15T12:02:44.364Z,103366.09
2022-12-15T12:05:40.844Z,103390.50
2022-12-15T12:08:20.932Z,103403.16
2022-12-15T12:11:00.349Z,103415.00
2022-12-15T12:13:34.957Z,103391.31
2022-12-15T12:16:26.219Z,103372.63
2022-12-15T12:19:11.141Z,103385.38
2022-12-15T12:25:18.603Z,103391.81
2022-12-15T12:28:02.627Z,103372.16
2022-12-15T12:30:50.667Z,103375.16
2022-12-15T12:33:49.657Z,103343.25
2022-12-15T12:36:18.985Z,103322.97
2022-12-15T12:38:57.145Z,103375.44
2022-12-15T12:42:01.358Z,103375.03
2022-12-15T12:44:38.480Z,103374.16
2022-12-15T12:47:30.659Z,103377.38
2022-12-15T12:50:30.789Z,103353.25
2022-12-15T12:53:04.443Z,103374.44
2022-12-15T12:55:41.654Z,103329.00
2022-12-15T12:58:40.929Z,103368.72
2022-12-15T13:01:13.672Z,103367.09
2022-12-15T13:03:45.937Z,103366.78
2022-12-15T13:06:42.636Z,103365.81
2022-12-15T13:09:21.296Z,103369.72
2022-12-15T13:11:51.847Z,103376.34
2022-12-15T13:14:32.354Z,103326.38
2022-12-15T13:17:38.375Z,103288.94
2022-12-15T13:20:28.220Z,103362.84
2022-12-15T13:23:17.436Z,103324.38
2022-12-15T13:26:06.316Z,103348.44
2022-12-15T13:28:40.945Z,103351.66
2022-12-15T13:31:19.912Z,103203.78
2022-12-15T13:33:51.645Z,103339.41
2022-12-15T13:36:41.259Z,103342.63
2022-12-15T13:39:15.898Z,103316.03
2022-12-15T13:44:58.576Z,103301.91
2022-12-15T13:47:31.395Z,103316.94
2022-12-15T13:50:07.836Z,103326.31
2022-12-15T13:55:54.377Z,103286.25
2022-12-15T13:58:28.173Z,103304.81
2022-12-15T14:00:59.520Z,103273.72
2022-12-15T14:03:28.540Z,103302.00
2022-12-15T14:06:01.255Z,103155.69
2022-12-15T14:08:31.317Z,103282.72
2022-12-15T14:11:16.498Z,103333.50
2022-12-15T14:13:54.398Z,103306.50
2022-12-15T14:16:25.490Z,103274.41
2022-12-15T14:19:15.650Z,103312.34
2022-12-15T14:22:00.427Z,103287.03
2022-12-15T14:24:38.974Z,103287.44
2022-12-15T14:27:23.576Z,103234.16
2022-12-15T14:30:24.495Z,103259.66
2022-12-15T14:33:17.355Z,103291.66
2022-12-15T14:35:54.494Z,103275.34
2022-12-15T14:38:29.657Z,103234.91
2022-12-15T14:41:01.756Z,103233.22
2022-12-15T14:43:38.238Z,103276.94
2022-12-15T14:46:16.383Z,103205.81
2022-12-15T14:48:51.673Z,103234.91
2022-12-15T14:51:23.287Z,103256.97
2022-12-15T14:53:55.056Z,103173.38
2022-12-15T14:56:31.430Z,103256.88
2022-12-15T14:59:06.583Z,103234.91
2022-12-15T15:01:58.694Z,103115.50
2022-12-15T15:03:04.932Z,103361.38
2022-12-15T15:03:10.011Z,103481.34
2022-12-15T15:04:32.604Z,103236.59
2022-12-15T15:07:06.280Z,103219.38
2022-12-15T15:09:42.215Z,103223.69
2022-12-15T15:12:16.592Z,103275.72
2022-12-15T15:15:06.262Z,103242.81
2022-12-15T15:17:44.707Z,103252.97
2022-12-15T15:20:32.817Z,103244.75
2022-12-15T15:23:20.599Z,103245.66
2022-12-15T15:26:07.596Z,103209.94
2022-12-15T15:28:41.876Z,103229.69
2022-12-15T15:31:42.736Z,103243.66
2022-12-15T15:34:12.399Z,103237.50
2022-12-15T15:36:41.992Z,103200.81
2022-12-15T15:39:16.551Z,103208.66
2022-12-15T15:41:45.502Z,103085.38
2022-12-15T15:44:16.669Z,103236.91
2022-12-15T15:46:51.673Z,103242.75
2022-12-15T15:49:22.738Z,103203.84
2022-12-15T15:51:52.085Z,103181.47
2022-12-15T15:54:29.423Z,103190.22
2022-12-15T15:56:58.390Z,103186.59
2022-12-15T15:59:27.563Z,103089.22
2022-12-15T16:01:56.774Z,103191.03
2022-12-15T16:04:28.603Z,103207.47
2022-12-15T16:06:57.201Z,103184.63
2022-12-15T16:09:26.469Z,103221.78
2022-12-15T16:11:55.789Z,103208.47
2022-12-15T16:14:24.648Z,103175.69
2022-12-15T16:16:55.270Z,103156.03
2022-12-15T16:19:26.424Z,103174.19
2022-12-15T16:21:56.409Z,103174.19
2022-12-15T16:24:28.314Z,103160.44
2022-12-15T16:26:57.491Z,103132.41
2022-12-15T16:29:26.330Z,103175.50
2022-12-15T16:31:55.739Z,103149.25
2022-12-15T16:34:25.414Z,103200.25
2022-12-15T16:36:53.950Z,103147.34
2022-12-15T16:39:49.297Z,103192.63
2022-12-15T16:42:18.317Z,103126.38
2022-12-15T16:44:47.139Z,103147.34
2022-12-15T16:47:16.977Z,103013.44
2022-12-15T16:49:45.954Z,102988.28
2022-12-15T16:52:22.136Z,103174.09
2022-12-15T16:54:51.238Z,103162.44
2022-12-15T16:57:22.852Z,103117.47
2022-12-15T16:59:51.669Z,103130.69
2022-12-15T17:02:30.267Z,103118.66
2022-12-15T17:04:59.343Z,103115.06
2022-12-15T17:07:29.163Z,103104.63
2022-12-15T17:09:58.385Z,103125.56
2022-12-15T17:12:28.505Z,103127.38
2022-12-15T17:14:59.301Z,103139.19
2022-12-15T17:17:30.102Z,103072.38
2022-12-15T17:22:53.406Z,103082.19
2022-12-15T17:25:53.407Z,103147.81
2022-12-15T17:28:25.281Z,103092.28
2022-12-15T17:30:54.337Z,103112.56
2022-12-15T17:33:26.323Z,103098.53
2022-12-15T17:35:57.834Z,103089.31
2022-12-15T17:38:26.865Z,103101.72
2022-12-15T17:40:57.157Z,103148.22
2022-12-15T17:43:35.418Z,103095.06
2022-12-15T17:46:05.088Z,102990.66
2022-12-15T17:48:34.233Z,103147.69
2022-12-15T17:51:03.277Z,103105.91
2022-12-15T17:53:32.534Z,103118.44
2022-12-15T17:56:01.695Z,103087.75
2022-12-15T17:58:30.564Z,103091.75
2022-12-15T18:00:59.364Z,103134.03
2022-12-15T18:03:28.557Z,103103.38
2022-12-15T18:05:58.335Z,103124.19
2022-12-15T18:08:28.924Z,103136.81
2022-12-15T18:10:59.321Z,103057.09
2022-12-15T18:13:35.294Z,103039.69
2022-12-15T18:16:04.678Z,103080.72
2022-12-15T18:18:34.148Z,103075.72
2022-12-15T18:21:17.565Z,103087.53
2022-12-15T18:23:48.463Z,103003.69
2022-12-15T18:26:17.305Z,103101.34
2022-12-15T18:28:46.335Z,103085.94
2022-12-15T18:31:22.077Z,103119.34
2022-12-15T18:33:51.212Z,103058.44
2022-12-15T18:36:20.941Z,103088.72
2022-12-15T18:38:50.546Z,103055.41
2022-12-15T18:41:21.842Z,103087.88
2022-12-15T18:43:51.826Z,103025.41
2022-12-15T18:46:22.963Z,103087.59
2022-12-15T18:48:51.793Z,103037.31
2022-12-15T18:51:25.725Z,103047.56
2022-12-15T18:53:54.399Z,103029.72
2022-12-15T18:56:24.530Z,103018.19
2022-12-15T18:58:53.464Z,103007.41
2022-12-15T19:01:22.310Z,103003.28
2022-12-15T19:03:51.392Z,103055.66
2022-12-15T19:06:37.202Z,103069.50
2022-12-15T19:09:12.255Z,103032.63
2022-12-15T19:11:41.628Z,102904.00
2022-12-15T19:14:37.212Z,103012.31
2022-12-15T19:17:24.845Z,103055.09
2022-12-15T19:20:13.882Z,103051.91
2022-12-15T19:22:44.268Z,102999.72
2022-12-15T19:25:25.474Z,103048.00
2022-12-15T19:28:00.849Z,103030.38
2022-12-15T19:30:37.024Z,102997.72
2022-12-15T19:33:07.748Z,103042.59
2022-12-15T19:35:38.263Z,103035.97
2022-12-15T19:38:14.107Z,103029.28
2022-12-15T19:40:43.188Z,103020.13
2022-12-15T19:43:16.676Z,103003.19
2022-12-15T19:45:45.415Z,103020.25
2022-12-15T19:48:16.575Z,102972.09
2022-12-15T19:50:54.790Z,102980.88
2022-12-15T19:53:25.557Z,103008.19
2022-12-15T19:56:00.619Z,102967.56
2022-12-15T19:58:33.079Z,102983.25
2022-12-15T20:01:22.363Z,102982.59
2022-12-15T20:03:54.576Z,102980.09
2022-12-15T20:06:28.639Z,102970.09
2022-12-15T20:08:58.510Z,102901.56
2022-12-15T20:11:31.232Z,102851.56
2022-12-15T20:14:04.583Z,102962.75
2022-12-15T20:16:32.997Z,102960.06
2022-12-15T20:19:01.999Z,102781.50
2022-12-15T20:21:35.214Z,102963.56
2022-12-15T20:24:13.264Z,102938.16
2022-12-15T20:26:43.541Z,102920.97
2022-12-15T20:29:41.908Z,102948.38
2022-12-15T20:32:20.216Z,102931.38
2022-12-15T20:34:49.413Z,102898.44
2022-12-15T20:37:24.944Z,102904.44
2022-12-15T20:39:57.484Z,102940.09
2022-12-15T20:42:26.913Z,102908.09
2022-12-15T20:44:55.527Z,102869.25
2022-12-15T20:47:27.558Z,102899.31
2022-12-15T20:49:56.620Z,102879.03
2022-12-15T20:52:27.857Z,102929.22
2022-12-15T20:54:57.196Z,102915.91
2022-12-15T20:57:25.996Z,102863.13
2022-12-15T20:59:54.502Z,102926.72
2022-12-15T21:02:25.525Z,102855.53
2022-12-15T21:04:55.786Z,102853.72
2022-12-15T21:07:24.724Z,102882.63
2022-12-15T21:09:53.340Z,102909.69
2022-12-15T21:12:25.554Z,102859.78
2022-12-15T21:14:55.109Z,102827.56
2022-12-15T21:17:26.664Z,102868.56
2022-12-15T21:19:55.267Z,102860.13
2022-12-15T21:22:26.831Z,102888.88
2022-12-15T21:24:58.034Z,102851.34
2022-12-15T21:27:26.743Z,102832.28
2022-12-15T21:29:55.445Z,102871.34
2022-12-15T21:32:24.026Z,102744.38
2022-12-15T21:34:52.680Z,102870.25
2022-12-15T21:37:29.461Z,102873.72
2022-12-15T21:40:00.248Z,102857.34
2022-12-15T21:42:49.679Z,102832.94
2022-12-15T21:45:21.706Z,102830.44
2022-12-15T21:48:09.792Z,102850.47
2022-12-15T21:50:39.714Z,102856.75
2022-12-15T21:53:11.219Z,102827.84
2022-12-15T21:55:41.916Z,102846.91
2022-12-15T21:58:20.545Z,102842.75
2022-12-15T22:00:49.338Z,102807.97
2022-12-15T22:03:18.070Z,102716.31
2022-12-15T22:05:46.714Z,102811.56
2022-12-15T22:08:18.885Z,102813.88
2022-12-15T22:10:49.874Z,102810.06
2022-12-15T22:13:23.278Z,102819.38
2022-12-15T22:15:52.085Z,102629.94
2022-12-15T22:18:20.844Z,102800.75
2022-12-15T22:20:51.429Z,102826.63
2022-12-15T22:23:24.097Z,102789.16
2022-12-15T22:25:56.250Z,102809.44
2022-12-15T22:28:28.732Z,102797.38
2022-12-15T22:30:58.665Z,102765.34
2022-12-15T22:33:29.495Z,102808.06
2022-12-15T22:35:58.327Z,102779.34
2022-12-15T22:38:27.108Z,102809.22
2022-12-15T22:40:59.545Z,102822.53
2022-12-15T22:43:53.527Z,102811.25
2022-12-15T22:46:25.540Z,102818.75
2022-12-15T22:48:55.077Z,102774.34
2022-12-15T22:51:23.915Z,102782.97
2022-12-15T22:53:52.852Z,102829.66
2022-12-15T22:56:31.614Z,102770.19
2022-12-15T22:59:09.252Z,102787.97
2022-12-15T23:01:38.602Z,102809.06
2022-12-15T23:04:07.374Z,102790.16
2022-12-15T23:06:36.373Z,102728.94
2022-12-15T23:09:06.191Z,102771.47
2022-12-15T23:11:42.215Z,102569.84
2022-12-15T23:14:17.016Z,102792.34
2022-12-15T23:16:47.420Z,102805.34
2022-12-15T23:19:24.520Z,102778.06
2022-12-15T23:21:54.087Z,102790.47
2022-12-15T23:24:22.983Z,102774.78
2022-12-15T23:26:51.714Z,102737.03
2022-12-15T23:29:21.012Z,102815.88
2022-12-15T23:31:50.652Z,102753.94
2022-12-15T23:34:19.671Z,102805.66
2022-12-15T23:36:48.791Z,102811.69
2022-12-15T23:39:17.995Z,102647.22
2022-12-15T23:41:46.831Z,102700.22
2022-12-15T23:44:15.592Z,102780.56
2022-12-15T23:46:44.875Z,102773.88
2022-12-15T23:49:14.137Z,102822.03
2022-12-15T23:51:43.017Z,102777.47
2022-12-15T23:54:11.717Z,102739.81
2022-12-15T23:56:41.147Z,102781.69
2022-12-15T23:59:10.189Z,102647.34
